Amberg, Wisconsin
Current Conditions -  °F | °C
As of 5:54 AM on Monday 24 Nov 2014 (Local Time) from KIMT Reporting Station
Light Rain Light Rain  
Wind Chill: 32°   Ceiling: 600
Heat Index: 37°   Visibility: 6mi
Dew Point: 37°   Wind: 6mph
Humidity: 100%   Direction: 310°NW
Pressure: 28.98"   Gusts: NA
Location:  45.5°N, 87.99°W
Report Text: KIMT 241154Z AUTO 31005KT 6SM -RA BR BKN006 OVC011 03/03 A2898 RMK AO2 SLP823 P0000 60001 70001 T00280028 10033 20022 56018
Loading
Personal Weather Stations






























Interactive Weather Map New forecast layout! Learn more

10-Day Weather Forecast

Advertisements
Track Severe Weather on mobile